Time;durP1;ratioP1;P1;durP2;ratioP2;P2;SDS_P1;SDS_P2;PMS_P1;PMS_P2;Temp;Humidity;BMP_temperature;BMP_pressure;BME280_temperature;BME280_humidity;BME280_pressure;Samples;Min_cycle;Max_cycle;Signal;HPM_P1;HPM_P2
2022/03/18 00:02:06;;;;;;;17.30;11.85;;;;;;;3.03;82.43;103107.38;5037484;27;21084;-70
2022/03/18 00:04:31;;;;;;;14.75;11.38;;;;;;;3.00;82.15;103098.72;5029639;27;20103;-71
2022/03/18 00:06:57;;;;;;;16.05;11.23;;;;;;;2.97;82.13;103097.00;5015355;27;20021;-70
2022/03/18 00:09:22;;;;;;;17.38;11.40;;;;;;;3.02;81.80;103110.03;5037126;27;20028;-70
2022/03/18 00:11:48;;;;;;;17.42;11.93;;;;;;;2.95;81.91;103114.50;5022163;27;20025;-70
2022/03/18 00:14:14;;;;;;;13.88;11.18;;;;;;;2.86;82.19;103104.19;5039508;27;20819;-70
2022/03/18 00:16:39;;;;;;;16.48;11.48;;;;;;;2.79;82.44;103113.91;5039207;27;20013;-71
2022/03/18 00:19:05;;;;;;;12.95;11.02;;;;;;;2.78;82.27;103119.16;5037032;27;20023;-70
2022/03/18 00:21:30;;;;;;;16.35;11.38;;;;;;;2.80;82.48;103126.09;5039822;27;20024;-71
2022/03/18 00:23:56;;;;;;;14.85;11.35;;;;;;;2.68;82.65;103116.72;5046115;27;20905;-70
2022/03/18 00:26:21;;;;;;;14.38;11.43;;;;;;;2.64;82.82;103103.75;5042469;27;20019;-70
2022/03/18 00:28:47;;;;;;;15.80;11.65;;;;;;;2.68;82.59;103110.63;5043262;27;20249;-70
2022/03/18 00:31:12;;;;;;;12.73;10.60;;;;;;;2.81;82.28;103116.53;5022927;27;20850;-71
2022/03/18 00:33:38;;;;;;;16.20;11.52;;;;;;;2.79;81.88;103102.59;5042465;27;20005;-70
2022/03/18 00:36:03;;;;;;;14.00;11.45;;;;;;;2.71;82.05;103108.81;5016922;27;20053;-72
2022/03/18 00:38:29;;;;;;;16.73;11.55;;;;;;;2.67;82.00;103103.69;5026025;27;20066;-70
2022/03/18 00:40:56;;;;;;;17.17;11.90;;;;;;;2.60;82.52;103116.00;5046220;27;20160;-70
2022/03/18 00:43:22;;;;;;;17.13;12.00;;;;;;;2.53;82.71;103117.00;5047029;27;20013;-70
2022/03/18 00:45:47;;;;;;;17.70;11.75;;;;;;;2.70;82.71;103119.31;5065080;27;20020;-70
2022/03/18 00:53:40;;;;;;;14.38;11.70;;;;;;;2.51;82.05;103114.41;5073255;27;20069;-71
2022/03/18 00:56:05;;;;;;;13.90;11.60;;;;;;;2.48;82.33;103116.19;5015520;27;20029;-70
2022/03/18 00:58:31;;;;;;;17.95;12.00;;;;;;;2.48;82.62;103118.81;5032659;27;20062;-70
2022/03/18 01:00:56;;;;;;;15.15;11.65;;;;;;;2.67;82.14;103122.00;5046739;27;20015;-69
2022/03/18 01:03:21;;;;;;;15.35;11.88;;;;;;;2.82;81.22;103110.38;5015614;27;20547;-70
2022/03/18 01:05:47;;;;;;;15.70;11.50;;;;;;;2.55;81.39;103118.69;5027455;27;20021;-73
2022/03/18 01:08:12;;;;;;;14.15;11.27;;;;;;;2.38;81.89;103105.91;5028896;27;20017;-70
2022/03/18 01:10:38;;;;;;;14.48;11.60;;;;;;;2.28;82.37;103108.69;5027215;27;20542;-70
2022/03/18 01:13:03;;;;;;;16.73;12.07;;;;;;;2.28;82.45;103114.75;5029569;27;20025;-72
2022/03/18 01:15:28;;;;;;;14.25;11.98;;;;;;;2.25;82.28;103122.66;5010992;27;20170;-70
2022/03/18 01:17:54;;;;;;;14.70;11.60;;;;;;;2.46;82.07;103120.59;5032610;27;20044;-70
2022/03/18 01:20:19;;;;;;;16.45;11.90;;;;;;;2.22;82.23;103122.72;5028836;27;20025;-70
2022/03/18 01:22:45;;;;;;;17.58;11.80;;;;;;;2.09;82.72;103126.38;5029791;27;20064;-70
2022/03/18 01:25:10;;;;;;;16.58;12.13;;;;;;;2.37;82.37;103127.69;5010432;27;20391;-71
2022/03/18 01:27:35;;;;;;;12.55;11.27;;;;;;;2.23;82.33;103127.91;5011446;27;20411;-70
2022/03/18 01:30:01;;;;;;;13.88;11.80;;;;;;;2.26;82.12;103123.50;5031344;27;20025;-70
2022/03/18 01:32:26;;;;;;;13.45;11.85;;;;;;;2.26;82.25;103133.97;5023676;27;20016;-70
2022/03/18 01:34:53;;;;;;;15.57;12.27;;;;;;;2.14;82.48;103125.41;5025876;27;20652;-72
2022/03/18 01:37:18;;;;;;;13.80;11.25;;;;;;;2.33;82.23;103120.78;5024057;27;20045;-72
2022/03/18 01:39:44;;;;;;;16.13;11.48;;;;;;;2.25;81.55;103127.88;5024834;27;20326;-71
2022/03/18 01:42:09;;;;;;;14.02;11.65;;;;;;;2.12;81.55;103134.19;5029059;27;20021;-70
2022/03/18 01:44:39;;;;;;;16.13;12.13;;;;;;;2.04;82.06;103145.59;5029077;27;20024;-71
2022/03/18 01:47:04;;;;;;;13.48;11.10;;;;;;;2.27;81.51;103139.19;5034052;27;20966;-71
2022/03/18 01:49:29;;;;;;;15.75;11.13;;;;;;;2.28;81.28;103146.13;5028577;28;20102;-71
2022/03/18 01:51:55;;;;;;;15.73;11.45;;;;;;;2.04;82.14;103148.19;5029476;27;20027;-72
2022/03/18 01:57:05;;;;;;;15.52;12.05;;;;;;;1.95;83.06;103143.13;5031555;27;20558;-71
2022/03/18 01:59:30;;;;;;;14.75;11.27;;;;;;;1.95;82.12;103153.56;4995985;27;20275;-71
2022/03/18 02:01:55;;;;;;;15.45;12.45;;;;;;;1.86;82.64;103156.28;5012187;27;20032;-71
2022/03/18 02:04:21;;;;;;;16.02;11.57;;;;;;;1.87;82.76;103163.25;5006278;27;20033;-71
2022/03/18 02:06:46;;;;;;;15.70;12.32;;;;;;;1.93;82.46;103162.31;5010358;27;20021;-71
2022/03/18 02:09:11;;;;;;;12.98;11.25;;;;;;;2.12;82.15;103166.38;5005901;27;20515;-71
2022/03/18 02:11:37;;;;;;;14.43;11.55;;;;;;;2.26;81.06;103166.19;4995073;27;20024;-72
2022/03/18 02:14:03;;;;;;;16.08;11.55;;;;;;;2.26;79.82;103176.63;4997950;27;20116;-71
2022/03/18 02:16:28;;;;;;;13.65;10.68;;;;;;;2.01;80.68;103166.53;5028948;27;20029;-71
2022/03/18 02:18:53;;;;;;;15.07;11.55;;;;;;;1.93;81.25;103177.97;5012909;27;20040;-71
2022/03/18 02:21:19;;;;;;;15.95;11.25;;;;;;;1.88;81.32;103165.84;5030314;27;20703;-71
2022/03/18 02:23:44;;;;;;;16.00;11.25;;;;;;;1.81;82.02;103173.78;5031153;27;20024;-71
2022/03/18 02:26:13;;;;;;;14.38;11.55;;;;;;;1.77;82.27;103166.88;5030397;27;20039;-71
2022/03/18 02:28:39;;;;;;;14.15;11.57;;;;;;;1.64;82.00;103172.25;5016385;27;20032;-70
2022/03/18 02:31:04;;;;;;;14.75;11.50;;;;;;;1.57;82.17;103181.03;5032168;27;20351;-71
2022/03/18 02:33:30;;;;;;;13.95;11.70;;;;;;;1.74;82.50;103173.00;5029096;27;20016;-71
2022/03/18 02:35:55;;;;;;;15.82;11.30;;;;;;;1.83;81.60;103185.94;5006856;27;20048;-70
2022/03/18 02:38:20;;;;;;;18.33;11.02;;;;;;;1.83;81.11;103177.22;5021394;27;20154;-71
2022/03/18 02:40:46;;;;;;;13.68;11.38;;;;;;;1.68;81.04;103170.47;5046656;27;20393;-72
2022/03/18 02:43:11;;;;;;;14.27;11.45;;;;;;;1.58;81.83;103181.88;5034856;27;20674;-71
2022/03/18 02:45:36;;;;;;;14.82;11.23;;;;;;;1.49;82.12;103185.47;5051530;27;20335;-70
2022/03/18 02:48:02;;;;;;;15.40;11.50;;;;;;;1.46;81.95;103182.91;5052803;27;20718;-71
2022/03/18 02:50:27;;;;;;;14.60;11.15;;;;;;;1.39;82.01;103189.94;5025715;27;20862;-71
2022/03/18 02:52:53;;;;;;;13.23;11.40;;;;;;;1.33;82.10;103205.66;5040114;27;20036;-71
2022/03/18 02:55:18;;;;;;;12.98;11.13;;;;;;;1.30;81.86;103201.31;5014556;27;20032;-70
2022/03/18 02:57:44;;;;;;;13.60;11.38;;;;;;;1.29;82.31;103204.81;5034038;27;20029;-70
2022/03/18 03:00:10;;;;;;;13.93;11.20;;;;;;;1.46;81.82;103209.00;5014939;27;20394;-71
2022/03/18 03:02:35;;;;;;;13.25;10.85;;;;;;;1.71;80.66;103205.22;5032637;27;20408;-70
2022/03/18 03:08:00;;;;;;;13.75;10.65;;;;;;;1.82;79.17;103217.25;5014936;27;20008;-71
2022/03/18 03:10:36;;;;;;;11.77;10.65;;;;;;;1.69;79.38;103220.03;5019998;27;20024;-70
2022/03/18 03:13:03;;;;;;;15.10;11.07;;;;;;;1.37;81.08;103229.06;5018039;27;20017;-71
2022/03/18 03:15:29;;;;;;;14.30;11.25;;;;;;;1.30;81.80;103230.03;5038270;27;20069;-71
2022/03/18 03:17:54;;;;;;;13.68;10.90;;;;;;;1.41;81.96;103237.75;5037731;27;21038;-71
2022/03/18 03:20:20;;;;;;;13.30;11.45;;;;;;;1.36;81.27;103243.00;5036729;27;20821;-71
2022/03/18 03:22:45;;;;;;;14.18;10.70;;;;;;;1.42;81.94;103234.25;5020555;27;20385;-71
2022/03/18 03:25:11;;;;;;;16.33;11.18;;;;;;;1.36;81.70;103240.38;5037268;27;20032;-70
2022/03/18 03:27:36;;;;;;;13.95;10.88;;;;;;;1.26;81.53;103243.97;5039026;27;20508;-70
2022/03/18 03:30:06;;;;;;;16.45;11.30;;;;;;;1.21;81.43;103240.53;5039502;27;20098;-70
2022/03/18 03:32:31;;;;;;;13.07;11.20;;;;;;;1.17;82.11;103251.88;5019015;28;20033;-70
2022/03/18 03:34:57;;;;;;;18.83;11.73;;;;;;;1.07;82.35;103247.63;5038212;27;20692;-70
2022/03/18 03:37:23;;;;;;;13.98;10.98;;;;;;;1.28;81.97;103257.00;5037291;27;20052;-70
2022/03/18 03:39:50;;;;;;;15.57;10.45;;;;;;;1.23;81.19;103259.66;5024118;27;20052;-70
2022/03/18 03:42:16;;;;;;;11.32;10.13;;;;;;;1.11;82.19;103254.53;5045966;27;20033;-70
2022/03/18 03:44:41;;;;;;;11.35;9.85;;;;;;;1.08;82.27;103262.41;5044140;27;20009;-70
2022/03/18 03:47:06;;;;;;;14.13;10.23;;;;;;;1.06;82.06;103267.63;5042888;27;20021;-70
2022/03/18 03:49:32;;;;;;;14.00;10.95;;;;;;;1.07;82.09;103263.25;5046557;27;20382;-71
2022/03/18 03:51:57;;;;;;;14.75;10.60;;;;;;;1.02;82.25;103261.56;5064192;27;20020;-70
2022/03/18 03:54:23;;;;;;;14.95;10.52;;;;;;;0.93;82.60;103266.88;5062302;27;20092;-70
2022/03/18 03:56:49;;;;;;;11.00;9.75;;;;;;;1.12;82.23;103251.06;5067149;27;20048;-69
2022/03/18 03:59:14;;;;;;;11.88;9.68;;;;;;;1.35;81.04;103246.50;5080682;27;20013;-70
2022/03/18 04:01:39;;;;;;;12.00;9.73;;;;;;;1.36;80.40;103249.97;5088303;27;20028;-70
2022/03/18 04:04:05;;;;;;;14.77;9.93;;;;;;;1.33;80.90;103250.84;5059372;27;20033;-70
2022/03/18 04:06:31;;;;;;;13.13;9.27;;;;;;;1.42;80.53;103259.47;5030708;27;20024;-70
2022/03/18 04:08:56;;;;;;;14.38;9.48;;;;;;;1.31;81.12;103256.97;5031698;27;20013;-70
2022/03/18 04:11:21;;;;;;;12.23;8.90;;;;;;;1.25;81.22;103265.72;5029606;27;20798;-70
2022/03/18 04:13:47;;;;;;;13.10;9.13;;;;;;;1.12;81.69;103272.78;5030218;27;20188;-70
2022/03/18 04:16:12;;;;;;;11.32;9.65;;;;;;;1.03;82.69;103273.72;4995855;27;20986;-70
2022/03/18 04:18:38;;;;;;;11.02;9.43;;;;;;;1.02;82.90;103264.16;5012208;27;20040;-70
2022/03/18 04:21:03;;;;;;;12.40;9.57;;;;;;;1.00;82.71;103272.88;5031288;27;20047;-69
2022/03/18 04:23:28;;;;;;;11.57;9.48;;;;;;;0.94;82.33;103281.59;4998894;27;20664;-69
2022/03/18 04:25:54;;;;;;;10.63;9.52;;;;;;;0.88;82.35;103279.06;5048646;27;20244;-70
2022/03/18 04:28:19;;;;;;;13.05;8.88;;;;;;;0.83;82.67;103273.88;5049675;27;20020;-69
2022/03/18 04:30:44;;;;;;;12.35;9.30;;;;;;;0.81;82.85;103277.38;5027411;27;20874;-70
2022/03/18 04:33:10;;;;;;;14.73;9.13;;;;;;;0.84;83.00;103282.56;5024524;27;20036;-70
2022/03/18 04:35:35;;;;;;;10.57;8.70;;;;;;;0.83;82.77;103286.91;5027772;27;20085;-72
2022/03/18 04:38:01;;;;;;;9.90;8.35;;;;;;;1.07;82.09;103294.56;5031939;27;20021;-70
2022/03/18 04:40:27;;;;;;;14.40;9.35;;;;;;;1.09;81.13;103298.03;5010139;27;20096;-70
2022/03/18 04:42:52;;;;;;;11.70;7.68;;;;;;;1.22;80.41;103294.44;4991569;28;20012;-70
2022/03/18 04:45:18;;;;;;;11.30;8.43;;;;;;;1.10;80.27;103294.53;5009470;27;20014;-72
2022/03/18 04:47:43;;;;;;;9.90;8.00;;;;;;;1.25;79.85;103293.53;5022200;27;20315;-70
2022/03/18 04:50:09;;;;;;;12.27;8.75;;;;;;;1.12;79.51;103293.63;5012753;27;20013;-69
2022/03/18 04:52:34;;;;;;;11.20;7.70;;;;;;;0.88;80.32;103289.47;5021322;27;21119;-70
2022/03/18 04:55:00;;;;;;;9.50;8.50;;;;;;;0.74;81.03;103283.50;5049602;27;20025;-70
2022/03/18 04:57:25;;;;;;;9.10;8.13;;;;;;;0.73;81.96;103289.59;5049727;27;20130;-70
2022/03/18 04:59:52;;;;;;;9.88;8.23;;;;;;;0.73;82.31;103289.59;5041096;27;20011;-70
2022/03/18 05:02:18;;;;;;;10.35;8.52;;;;;;;0.61;82.67;103295.75;5029387;27;20036;-69
2022/03/18 05:04:44;;;;;;;12.93;9.07;;;;;;;0.67;82.78;103306.13;5029309;27;20276;-70
2022/03/18 05:07:11;;;;;;;10.63;8.90;;;;;;;0.57;82.38;103292.28;5019691;27;20016;-71
2022/03/18 05:09:37;;;;;;;10.18;9.13;;;;;;;0.57;82.26;103312.28;5007319;28;20025;-73
2022/03/18 05:12:03;;;;;;;10.93;9.07;;;;;;;0.51;82.34;103315.78;5010679;27;20009;-70
2022/03/18 05:14:28;;;;;;;12.70;9.32;;;;;;;0.51;82.16;103310.56;5009513;27;20021;-71
2022/03/18 05:16:54;;;;;;;12.18;8.98;;;;;;;0.47;82.34;103312.31;5025731;27;20033;-70
2022/03/18 05:19:19;;;;;;;9.85;8.32;;;;;;;0.43;82.23;103317.56;4991610;27;20033;-70
2022/03/18 05:21:44;;;;;;;10.45;8.48;;;;;;;0.39;82.45;103321.91;5027086;27;20037;-70
2022/03/18 05:24:10;;;;;;;11.50;9.15;;;;;;;0.56;81.84;103328.78;5029432;27;20032;-70
2022/03/18 05:26:36;;;;;;;11.55;9.00;;;;;;;0.66;81.53;103338.25;5027875;27;20727;-70
2022/03/18 05:29:02;;;;;;;10.43;8.90;;;;;;;0.45;82.13;103347.06;5011806;27;20063;-70
2022/03/18 05:31:28;;;;;;;12.73;8.82;;;;;;;0.30;82.07;103338.44;5029611;27;20025;-70
2022/03/18 05:33:54;;;;;;;12.02;9.23;;;;;;;0.31;82.57;103342.78;5029890;27;20024;-69
2022/03/18 05:36:20;;;;;;;14.20;9.25;;;;;;;0.25;82.58;103348.00;5026672;27;20465;-71
2022/03/18 05:38:45;;;;;;;10.63;8.85;;;;;;;0.19;82.68;103348.03;5009502;27;20813;-70
2022/03/18 05:41:11;;;;;;;10.07;9.02;;;;;;;0.19;82.79;103345.41;4997404;28;20025;-71
2022/03/18 05:43:36;;;;;;;12.95;9.18;;;;;;;0.30;82.91;103359.28;4984823;28;20036;-70
2022/03/18 05:46:02;;;;;;;12.05;9.07;;;;;;;0.18;82.85;103367.13;5029188;27;20027;-70
2022/03/18 05:48:27;;;;;;;12.27;8.85;;;;;;;0.27;82.33;103374.91;5013989;28;20871;-69
2022/03/18 05:50:53;;;;;;;13.38;9.00;;;;;;;0.43;82.18;103360.09;5028804;28;20055;-73
2022/03/18 05:53:18;;;;;;;11.77;8.68;;;;;;;0.34;82.05;103376.63;5027630;27;20296;-70
2022/03/18 05:58:27;;;;;;;11.35;8.85;;;;;;;0.20;83.28;103394.03;5019392;28;20076;-72
2022/03/18 06:00:53;;;;;;;11.95;8.70;;;;;;;0.26;82.76;103388.78;5032712;27;20021;-73
2022/03/18 06:03:19;;;;;;;12.13;8.95;;;;;;;0.20;82.54;103394.03;5016291;28;20465;-71
2022/03/18 06:05:44;;;;;;;11.25;8.13;;;;;;;0.43;83.18;103396.56;5029993;27;20028;-72
2022/03/18 06:13:37;;;;;;;;;;;;;;;0.33;82.84;103411.34;5011399;28;20016;-70
2022/03/18 06:16:03;;;;;;;9.53;7.30;;;;;;;0.33;82.68;103415.69;5038642;27;20157;-69
2022/03/18 06:18:28;;;;;;;12.40;8.23;;;;;;;0.29;82.82;103401.81;5033544;28;20056;-71
2022/03/18 06:20:55;;;;;;;8.55;7.70;;;;;;;0.30;82.95;103424.38;5005396;28;20859;-70
2022/03/18 06:23:20;;;;;;;9.68;7.55;;;;;;;0.48;82.78;103433.00;5036935;28;20020;-69
2022/03/18 06:25:46;;;;;;;8.90;7.80;;;;;;;0.75;81.52;103429.44;5038394;27;20027;-74
2022/03/18 06:28:12;;;;;;;9.98;7.68;;;;;;;0.72;81.58;103434.69;5016784;28;20021;-70
2022/03/18 06:30:37;;;;;;;10.05;7.60;;;;;;;0.88;81.45;103440.69;5041960;27;20025;-70
2022/03/18 06:33:02;;;;;;;10.80;7.55;;;;;;;0.79;81.46;103440.72;5040019;28;20013;-70
2022/03/18 06:35:28;;;;;;;11.25;7.70;;;;;;;0.68;82.54;103449.44;5037082;27;20057;-70
2022/03/18 06:37:54;;;;;;;9.18;7.18;;;;;;;0.66;83.03;103440.78;5046122;27;20048;-70
2022/03/18 06:40:20;;;;;;;9.48;7.60;;;;;;;0.67;83.01;103436.44;5009640;27;20025;-70
2022/03/18 06:42:45;;;;;;;12.45;7.65;;;;;;;0.62;83.16;103439.06;5043807;27;20009;-71
2022/03/18 06:45:10;;;;;;;10.88;7.32;;;;;;;0.68;83.86;103439.03;5045049;27;20280;-71
2022/03/18 06:47:36;;;;;;;9.63;7.63;;;;;;;0.74;83.67;103438.13;5046238;27;20025;-71
2022/03/18 06:50:01;;;;;;;11.00;7.57;;;;;;;0.79;83.95;103435.50;5030878;27;20013;-70
2022/03/18 06:52:27;;;;;;;10.68;7.80;;;;;;;0.83;83.73;103437.22;5011625;27;20009;-69
2022/03/18 06:54:52;;;;;;;12.35;7.70;;;;;;;0.89;83.88;103439.81;5045690;27;20021;-71
2022/03/18 06:57:18;;;;;;;14.20;8.43;;;;;;;0.98;84.05;103442.34;5052161;27;20041;-70
2022/03/18 06:59:43;;;;;;;10.85;8.18;;;;;;;1.10;84.45;103451.88;5051044;27;20037;-70
2022/03/18 07:02:08;;;;;;;12.30;8.38;;;;;;;1.17;84.52;103465.72;5044108;27;20021;-71
2022/03/18 07:04:34;;;;;;;12.23;8.52;;;;;;;1.46;83.80;103473.38;5055186;27;20065;-71
2022/03/18 07:07:01;;;;;;;10.65;8.10;;;;;;;1.44;83.36;103472.53;5046796;27;20004;-71
2022/03/18 07:09:27;;;;;;;10.23;8.15;;;;;;;1.45;83.40;103474.25;5065680;27;20356;-71
2022/03/18 07:11:52;;;;;;;10.18;7.88;;;;;;;1.66;83.74;103483.69;5049486;27;20093;-71
2022/03/18 07:14:17;;;;;;;14.15;8.48;;;;;;;1.75;83.86;103477.53;5029221;27;20034;-71
2022/03/18 07:19:28;;;;;;;10.75;8.18;;;;;;;2.13;84.93;103478.97;5032182;27;20047;-69
2022/03/18 07:21:54;;;;;;;13.10;8.57;;;;;;;2.24;84.43;103484.06;5032319;27;20430;-71
2022/03/18 07:24:19;;;;;;;11.07;8.02;;;;;;;2.36;84.79;103468.28;5034227;27;20032;-72
2022/03/18 07:26:44;;;;;;;11.93;8.40;;;;;;;2.51;85.01;103471.59;5029871;27;20017;-70
2022/03/18 07:29:10;;;;;;;10.73;7.93;;;;;;;2.77;84.51;103475.69;5031029;27;20539;-70
2022/03/18 07:31:35;;;;;;;16.20;8.82;;;;;;;2.91;83.39;103473.75;5033759;27;20025;-69
2022/03/18 07:34:01;;;;;;;13.15;8.07;;;;;;;3.10;82.81;103471.75;5033589;27;20029;-71
2022/03/18 07:36:26;;;;;;;11.88;8.27;;;;;;;3.16;83.03;103468.19;5036037;27;20028;-70
2022/03/18 07:38:51;;;;;;;10.32;8.50;;;;;;;3.26;82.62;103475.03;5029655;27;20040;-71
2022/03/18 07:41:17;;;;;;;12.25;8.32;;;;;;;3.53;81.39;103471.13;5033943;27;20017;-71
2022/03/18 07:43:42;;;;;;;9.68;8.50;;;;;;;3.63;80.87;103469.25;5031845;27;20086;-71
2022/03/18 07:46:08;;;;;;;13.52;8.93;;;;;;;3.75;81.19;103474.28;5037832;27;20316;-71
2022/03/18 07:48:33;;;;;;;13.73;9.57;;;;;;;3.95;80.85;103475.72;5028476;27;20017;-71
2022/03/18 07:50:58;;;;;;;13.02;8.85;;;;;;;4.07;80.23;103469.41;5018892;27;20081;-71
2022/03/18 07:53:24;;;;;;;12.43;8.88;;;;;;;4.18;79.12;103471.84;5026549;27;20009;-70
2022/03/18 07:55:49;;;;;;;14.38;8.48;;;;;;;4.28;78.30;103470.75;5040530;27;20032;-72
2022/03/18 07:58:15;;;;;;;13.10;8.85;;;;;;;4.50;77.27;103467.72;5034655;27;20025;-72
2022/03/18 08:00:40;;;;;;;12.65;8.13;;;;;;;4.67;76.85;103465.66;5035778;27;20021;-72
2022/03/18 08:03:05;;;;;;;11.68;8.07;;;;;;;4.84;75.99;103461.78;5012759;27;20316;-72
2022/03/18 08:05:31;;;;;;;13.23;7.97;;;;;;;4.88;75.98;103452.97;5032113;27;20029;-72
2022/03/18 08:07:57;;;;;;;12.00;7.47;;;;;;;4.95;77.09;103460.69;5027857;27;20065;-72
2022/03/18 08:10:22;;;;;;;10.30;6.63;;;;;;;5.06;75.44;103460.47;5033059;27;20025;-71
2022/03/18 08:12:48;;;;;;;10.00;6.78;;;;;;;5.17;73.75;103468.09;5033853;27;20077;-72
2022/03/18 08:15:14;;;;;;;10.35;7.07;;;;;;;5.31;73.46;103473.03;5033161;27;20013;-71
2022/03/18 08:17:40;;;;;;;13.48;6.80;;;;;;;5.35;72.43;103479.09;5016043;27;20068;-72
2022/03/18 08:20:10;;;;;;;9.40;6.20;;;;;;;5.49;71.11;103477.84;5016718;27;20020;-72
2022/03/18 08:22:36;;;;;;;9.65;5.55;;;;;;;5.59;71.72;103478.50;5030095;27;20005;-71
2022/03/18 08:25:02;;;;;;;15.10;5.95;;;;;;;5.78;71.15;103484.19;5038899;27;20389;-71
2022/03/18 08:27:27;;;;;;;8.63;5.55;;;;;;;5.93;69.67;103482.91;5014062;27;20035;-71
2022/03/18 08:29:57;;;;;;;12.68;6.35;;;;;;;6.10;69.28;103479.03;5016419;27;20911;-72
2022/03/18 08:32:23;;;;;;;8.75;6.30;;;;;;;6.37;68.86;103474.81;5033901;27;20937;-72
2022/03/18 08:34:48;;;;;;;9.45;5.72;;;;;;;6.56;69.60;103462.00;5011649;27;20013;-71
2022/03/18 08:37:13;;;;;;;13.70;5.50;;;;;;;6.61;67.08;103469.78;5028208;27;20021;-72
2022/03/18 08:39:41;;;;;;;8.85;5.38;;;;;;;6.71;66.58;103471.22;5038638;27;20025;-72
2022/03/18 08:42:06;;;;;;;8.65;5.05;;;;;;;6.96;65.67;103470.53;5027854;27;20118;-71
2022/03/18 08:44:32;;;;;;;10.15;5.38;;;;;;;7.09;64.24;103477.13;5015178;27;20068;-71
2022/03/18 08:46:57;;;;;;;13.55;6.13;;;;;;;7.37;64.20;103478.91;5034721;27;20013;-71
2022/03/18 08:49:23;;;;;;;8.93;5.85;;;;;;;7.49;63.21;103486.44;5031106;27;20073;-72
2022/03/18 08:51:48;;;;;;;7.70;5.25;;;;;;;7.69;62.06;103493.69;5035943;27;21031;-71
2022/03/18 08:54:13;;;;;;;14.50;5.30;;;;;;;8.05;62.70;103493.41;5018796;27;20020;-71
2022/03/18 08:56:39;;;;;;;10.93;4.93;;;;;;;8.45;61.72;103499.09;5038349;27;20272;-72
2022/03/18 08:59:06;;;;;;;7.45;4.60;;;;;;;8.78;59.61;103493.47;5007717;27;20047;-71
2022/03/18 09:01:35;;;;;;;8.43;4.70;;;;;;;9.05;58.87;103498.63;5038131;27;20587;-71
2022/03/18 09:04:01;;;;;;;8.30;4.65;;;;;;;9.50;58.45;103494.25;5030484;27;20029;-71
2022/03/18 09:06:26;;;;;;;13.30;5.47;;;;;;;9.96;58.30;103498.50;4996648;28;20127;-72
2022/03/18 09:08:52;;;;;;;8.00;4.85;;;;;;;10.13;55.29;103499.59;5030377;27;20498;-71
2022/03/18 09:11:17;;;;;;;13.20;5.15;;;;;;;10.30;53.95;103507.63;5036008;27;20017;-71
2022/03/18 09:13:43;;;;;;;7.65;4.97;;;;;;;10.86;52.72;103507.00;5035867;27;20497;-72
2022/03/18 09:16:10;;;;;;;8.02;4.72;;;;;;;11.16;51.85;103510.00;5040490;27;20044;-72
2022/03/18 09:18:35;;;;;;;5.97;4.47;;;;;;;11.45;50.93;103507.75;5045469;27;20041;-70
2022/03/18 09:21:00;;;;;;;7.00;4.10;;;;;;;11.85;50.37;103513.75;5045607;27;20052;-71
2022/03/18 09:23:26;;;;;;;9.30;4.22;;;;;;;12.23;49.18;103518.94;5052417;27;20028;-72
2022/03/18 09:25:51;;;;;;;7.82;4.35;;;;;;;12.56;48.10;103514.59;5048341;27;20112;-72
2022/03/18 09:28:17;;;;;;;6.80;4.20;;;;;;;12.91;46.15;103522.47;5050368;27;20098;-73
2022/03/18 09:30:42;;;;;;;5.60;3.65;;;;;;;13.39;44.98;103516.25;5020179;27;20017;-72
2022/03/18 09:33:08;;;;;;;10.02;4.10;;;;;;;13.95;44.08;103520.19;5020152;27;20041;-71
2022/03/18 09:35:34;;;;;;;6.95;3.95;;;;;;;14.31;42.09;103527.78;5036509;27;20009;-72
2022/03/18 09:37:59;;;;;;;8.88;4.13;;;;;;;14.87;40.12;103524.41;5034404;27;21041;-71
2022/03/18 09:40:25;;;;;;;8.18;4.25;;;;;;;15.10;40.10;103531.81;5017992;27;20040;-72
2022/03/18 09:43:01;;;;;;;5.32;3.72;;;;;;;15.31;39.88;103528.69;5021670;27;20021;-73
2022/03/18 09:45:30;;;;;;;4.20;3.42;;;;;;;15.66;39.33;103528.19;5032207;27;20554;-72
2022/03/18 09:47:57;;;;;;;2.00;1.80;;;;;;;15.93;32.99;103533.56;5041544;28;20283;-72
2022/03/18 09:50:22;;;;;;;4.13;2.33;;;;;;;16.05;35.01;103539.88;5023374;27;20048;-71
2022/03/18 09:52:48;;;;;;;4.07;1.75;;;;;;;16.21;32.57;103541.50;5043799;27;20029;-72
2022/03/18 09:55:13;;;;;;;1.73;0.77;;;;;;;16.45;30.16;103541.63;5041537;27;20202;-72
2022/03/18 09:57:39;;;;;;;0.77;0.77;;;;;;;17.15;30.24;103541.13;5027407;28;20116;-71
2022/03/18 10:00:04;;;;;;;0.80;0.80;;;;;;;16.88;29.01;103543.06;5047005;27;20021;-72
2022/03/18 10:02:30;;;;;;;2.83;0.63;;;;;;;16.74;29.24;103546.75;5063901;27;20648;-71
2022/03/18 10:04:57;;;;;;;0.90;0.70;;;;;;;16.64;29.63;103551.88;5051452;27;20015;-73
2022/03/18 10:07:24;;;;;;;3.58;0.77;;;;;;;16.91;28.21;103548.25;5050895;27;20013;-72
2022/03/18 10:10:03;;;;;;;2.88;0.80;;;;;;;17.11;29.35;103544.97;5047064;28;20108;-72
2022/03/18 10:12:33;;;;;;;2.30;0.50;;;;;;;17.79;27.47;103539.97;5030638;27;21060;-72
2022/03/18 10:15:23;;;;;;;0.60;0.55;;;;;;;18.11;26.28;103542.06;5065930;27;20092;-73
2022/03/18 10:17:50;;;;;;;0.82;0.82;;;;;;;18.48;27.05;103547.25;5057888;27;20036;-72
2022/03/18 10:20:25;;;;;;;0.50;0.50;;;;;;;18.00;25.37;103539.34;5054728;27;20460;-73
2022/03/18 10:22:51;;;;;;;0.55;0.50;;;;;;;18.79;27.12;103533.25;5036376;27;20991;-73
2022/03/18 10:25:40;;;;;;;1.27;0.50;;;;;;;18.97;25.47;103522.91;5000090;27;20090;-72
2022/03/18 10:28:07;;;;;;;0.73;0.60;;;;;;;19.00;25.78;103528.84;5018788;28;20014;-72
2022/03/18 10:30:32;;;;;;;0.50;0.50;;;;;;;18.66;24.47;103533.38;5011815;27;20028;-73
2022/03/18 10:32:58;;;;;;;0.50;0.50;;;;;;;18.67;25.27;103535.06;5037865;27;20263;-72
2022/03/18 10:38:27;;;;;;;0.60;0.60;;;;;;;19.55;25.42;103536.03;5031613;27;20558;-73
2022/03/18 10:40:53;;;;;;;0.60;0.60;;;;;;;19.55;24.23;103531.50;5037241;27;20013;-73
2022/03/18 10:43:18;;;;;;;0.50;0.50;;;;;;;20.46;23.49;103528.34;5022651;27;20501;-72
2022/03/18 10:46:03;;;;;;;1.85;0.60;;;;;;;20.92;23.54;103520.75;5012758;27;20021;-73
2022/03/18 10:48:29;;;;;;;2.90;0.68;;;;;;;21.65;22.87;103525.00;5016728;27;20077;-71
2022/03/18 10:51:02;;;;;;;0.57;0.57;;;;;;;21.40;22.57;103530.75;5011614;27;20013;-73
2022/03/18 10:53:30;;;;;;;0.47;0.40;;;;;;;20.49;21.67;103525.38;5045075;27;20170;-72
2022/03/18 10:56:03;;;;;;;1.40;0.55;;;;;;;20.84;22.61;103524.13;5039426;27;20427;-72
2022/03/18 10:58:31;;;;;;;1.95;0.70;;;;;;;22.14;20.86;103531.16;5024065;27;20553;-73
2022/03/18 11:00:59;;;;;;;1.45;0.80;;;;;;;22.85;21.31;103518.97;5000770;27;20449;-74
2022/03/18 11:03:25;;;;;;;0.50;0.50;;;;;;;23.09;20.32;103514.84;5015655;27;20067;-73
2022/03/18 11:05:51;;;;;;;1.67;0.50;;;;;;;23.43;19.33;103519.59;5018305;27;20055;-73
2022/03/18 11:08:24;;;;;;;0.60;0.57;;;;;;;23.04;19.87;103530.66;5016440;27;20032;-72
2022/03/18 11:13:48;;;;;;;0.45;0.45;;;;;;;23.18;19.42;103510.41;5016284;27;20479;-72
2022/03/18 11:16:27;;;;;;;0.80;0.50;;;;;;;23.77;19.72;103518.88;5036841;27;20141;-73
2022/03/18 11:18:52;;;;;;;1.58;0.60;;;;;;;23.92;18.56;103509.22;5019349;27;20065;-73
2022/03/18 11:21:18;;;;;;;0.98;0.57;;;;;;;23.54;19.11;103516.66;5017021;27;20020;-73
2022/03/18 11:23:45;;;;;;;0.65;0.60;;;;;;;24.47;19.01;103512.59;5017449;27;20243;-73
2022/03/18 11:26:12;;;;;;;0.70;0.50;;;;;;;24.79;19.37;103519.16;5032884;27;20074;-73
2022/03/18 11:28:37;;;;;;;0.50;0.50;;;;;;;23.75;19.19;103520.91;5016723;27;20809;-74
2022/03/18 11:31:05;;;;;;;1.40;0.80;;;;;;;23.74;19.12;103516.50;5034272;27;20085;-72
2022/03/18 11:33:30;;;;;;;1.73;0.70;;;;;;;24.74;19.22;103518.81;5014656;27;20063;-73
2022/03/18 11:35:55;;;;;;;0.80;0.70;;;;;;;23.71;19.71;103516.81;5034068;27;20481;-73
2022/03/18 11:38:23;;;;;;;1.38;0.95;;;;;;;24.59;19.98;103521.25;5034454;27;20052;-73
2022/03/18 11:40:57;;;;;;;0.85;0.60;;;;;;;24.53;19.67;103512.75;5033336;27;20173;-74
2022/03/18 11:43:41;;;;;;;1.17;0.80;;;;;;;25.17;18.74;103514.16;5032567;27;20695;-73
2022/03/18 11:46:12;;;;;;;0.60;0.60;;;;;;;25.55;18.45;103517.28;5035419;27;20028;-74
2022/03/18 11:48:41;;;;;;;2.00;0.70;;;;;;;25.60;17.26;103514.06;5036846;27;20024;-74